Terminal Aerodrome Forecast
Issued by NWS

Home | Current Version | Previous Version | Text Only | Print | Product List | Glossary On
Versions: 1 2 3 4 5 6 7 8 9 10 11 12 13 14 15 16
182
FTUS43 KDLH 232333
TAFHIB
TAF
KHIB 232333Z 2400/2424 31007KT P6SM FEW080
     FM240800 36007KT P6SM BKN090
     FM241500 34012G16KT P6SM SCT040=

USA.gov is the U.S. government's official web portal to all federal, state and local government web resources and services.